Terminal Aerodrome Forecast
Issued by NWS Wilmington, OH

Current Version | Previous Version | Graphics & Text | Print | Product List | Glossary On
Versions: 1 2 3 4 5 6 7 8 9 10 11 12 13 14 15 16 17 18 19 20 21 22 23 24 25 26 27 28 29 30
000
FTUS41 KILN 270202 AAA
TAFILN
TAF AMD
KILN 270202Z 2702/2724 VRB03KT P6SM VCSH SCT050 OVC150
     FM270500 VRB03KT 6SM -SHRA BR BKN050 OVC100
     FM271100 VRB03KT 4SM BR SCT050 BKN100
     FM271400 12005KT P6SM SCT035 SCT100=

USA.gov is the U.S. government's official web portal to all federal, state and local government web resources and services.